sensor_id;sensor_type;location;lat;lon;timestamp;P1;durP1;ratioP1;P2;durP2;ratioP2
22673;SDS011;11504;43.334;21.918;2023-05-23T00:01:59;14.0;;;14.0;;
22673;SDS011;11504;43.334;21.918;2023-05-23T00:06:35;14.0;;;14.0;;
22673;SDS011;11504;43.334;21.918;2023-05-23T00:11:12;15.0;;;14.0;;
22673;SDS011;11504;43.334;21.918;2023-05-23T00:15:49;15.0;;;14.0;;
22673;SDS011;11504;43.334;21.918;2023-05-23T00:20:25;16.0;;;14.0;;
22673;SDS011;11504;43.334;21.918;2023-05-23T00:25:02;16.0;;;14.0;;
22673;SDS011;11504;43.334;21.918;2023-05-23T00:29:38;16.0;;;15.0;;
22673;SDS011;11504;43.334;21.918;2023-05-23T00:34:15;16.0;;;15.0;;
22673;SDS011;11504;43.334;21.918;2023-05-23T00:38:51;16.0;;;16.0;;
22673;SDS011;11504;43.334;21.918;2023-05-23T00:43:28;16.0;;;16.0;;
22673;SDS011;11504;43.334;21.918;2023-05-23T00:48:05;16.0;;;16.0;;
22673;SDS011;11504;43.334;21.918;2023-05-23T00:52:44;16.0;;;16.0;;
22673;SDS011;11504;43.334;21.918;2023-05-23T00:57:24;16.0;;;16.0;;
22673;SDS011;11504;43.334;21.918;2023-05-23T01:02:01;16.0;;;15.0;;
22673;SDS011;11504;43.334;21.918;2023-05-23T01:06:37;16.0;;;15.0;;
22673;SDS011;11504;43.334;21.918;2023-05-23T01:11:34;15.0;;;14.0;;
22673;SDS011;11504;43.334;21.918;2023-05-23T01:16:35;15.0;;;14.0;;
22673;SDS011;11504;43.334;21.918;2023-05-23T01:21:31;15.0;;;14.0;;
22673;SDS011;11504;43.334;21.918;2023-05-23T01:26:25;15.0;;;14.0;;
22673;SDS011;11504;43.334;21.918;2023-05-23T01:40:57;15.0;;;14.0;;
22673;SDS011;11504;43.334;21.918;2023-05-23T01:45:35;15.0;;;14.0;;
22673;SDS011;11504;43.334;21.918;2023-05-23T01:50:13;15.0;;;14.0;;
22673;SDS011;11504;43.334;21.918;2023-05-23T01:54:52;15.0;;;14.0;;
22673;SDS011;11504;43.334;21.918;2023-05-23T01:59:29;14.0;;;14.0;;
22673;SDS011;11504;43.334;21.918;2023-05-23T02:04:06;14.0;;;14.0;;
22673;SDS011;11504;43.334;21.918;2023-05-23T02:08:42;14.0;;;13.0;;
22673;SDS011;11504;43.334;21.918;2023-05-23T02:13:18;14.0;;;13.0;;
22673;SDS011;11504;43.334;21.918;2023-05-23T02:17:55;14.0;;;13.0;;
22673;SDS011;11504;43.334;21.918;2023-05-23T02:22:32;16.0;;;14.0;;
22673;SDS011;11504;43.334;21.918;2023-05-23T02:27:08;16.0;;;14.0;;
22673;SDS011;11504;43.334;21.918;2023-05-23T02:31:45;17.0;;;16.0;;
22673;SDS011;11504;43.334;21.918;2023-05-23T02:36:22;17.0;;;16.0;;
22673;SDS011;11504;43.334;21.918;2023-05-23T02:40:58;17.0;;;16.0;;
22673;SDS011;11504;43.334;21.918;2023-05-23T02:45:35;17.0;;;16.0;;
22673;SDS011;11504;43.334;21.918;2023-05-23T02:50:11;17.0;;;16.0;;
22673;SDS011;11504;43.334;21.918;2023-05-23T02:54:48;17.0;;;16.0;;
22673;SDS011;11504;43.334;21.918;2023-05-23T02:59:24;17.0;;;16.0;;
22673;SDS011;11504;43.334;21.918;2023-05-23T03:04:00;17.0;;;16.0;;
22673;SDS011;11504;43.334;21.918;2023-05-23T03:08:36;17.0;;;16.0;;
22673;SDS011;11504;43.334;21.918;2023-05-23T03:13:13;17.0;;;16.0;;
22673;SDS011;11504;43.334;21.918;2023-05-23T03:17:49;17.0;;;16.0;;
22673;SDS011;11504;43.334;21.918;2023-05-23T03:22:25;15.0;;;14.0;;
22673;SDS011;11504;43.334;21.918;2023-05-23T03:27:02;15.0;;;14.0;;
22673;SDS011;11504;43.334;21.918;2023-05-23T03:31:38;13.0;;;13.0;;
22673;SDS011;11504;43.334;21.918;2023-05-23T03:36:15;13.0;;;13.0;;
22673;SDS011;11504;43.334;21.918;2023-05-23T03:40:51;14.0;;;14.0;;
22673;SDS011;11504;43.334;21.918;2023-05-23T03:45:28;14.0;;;14.0;;
22673;SDS011;11504;43.334;21.918;2023-05-23T03:50:07;16.0;;;15.0;;
22673;SDS011;11504;43.334;21.918;2023-05-23T03:54:44;16.0;;;15.0;;
22673;SDS011;11504;43.334;21.918;2023-05-23T03:59:20;17.0;;;16.0;;
22673;SDS011;11504;43.334;21.918;2023-05-23T04:03:57;17.0;;;16.0;;
22673;SDS011;11504;43.334;21.918;2023-05-23T04:08:33;18.0;;;17.0;;
22673;SDS011;11504;43.334;21.918;2023-05-23T04:13:09;18.0;;;17.0;;
22673;SDS011;11504;43.334;21.918;2023-05-23T04:17:45;18.0;;;17.0;;
22673;SDS011;11504;43.334;21.918;2023-05-23T04:22:22;17.0;;;16.0;;
22673;SDS011;11504;43.334;21.918;2023-05-23T04:26:58;17.0;;;16.0;;
22673;SDS011;11504;43.334;21.918;2023-05-23T04:31:34;16.0;;;15.0;;
22673;SDS011;11504;43.334;21.918;2023-05-23T04:36:10;16.0;;;15.0;;
22673;SDS011;11504;43.334;21.918;2023-05-23T04:40:47;14.0;;;13.0;;
22673;SDS011;11504;43.334;21.918;2023-05-23T04:45:23;14.0;;;13.0;;
22673;SDS011;11504;43.334;21.918;2023-05-23T04:50:00;11.0;;;11.0;;
22673;SDS011;11504;43.334;21.918;2023-05-23T04:54:36;11.0;;;11.0;;
22673;SDS011;11504;43.334;21.918;2023-05-23T04:59:13;11.0;;;10.0;;
22673;SDS011;11504;43.334;21.918;2023-05-23T05:03:50;11.0;;;10.0;;
22673;SDS011;11504;43.334;21.918;2023-05-23T05:08:26;11.0;;;10.0;;
22673;SDS011;11504;43.334;21.918;2023-05-23T05:13:03;11.0;;;10.0;;
22673;SDS011;11504;43.334;21.918;2023-05-23T05:17:39;11.0;;;10.0;;
22673;SDS011;11504;43.334;21.918;2023-05-23T05:22:16;10.0;;;10.0;;
22673;SDS011;11504;43.334;21.918;2023-05-23T05:26:54;10.0;;;10.0;;
22673;SDS011;11504;43.334;21.918;2023-05-23T05:31:32;10.0;;;9.0;;
22673;SDS011;11504;43.334;21.918;2023-05-23T05:36:08;10.0;;;9.0;;
22673;SDS011;11504;43.334;21.918;2023-05-23T05:40:45;10.0;;;10.0;;
22673;SDS011;11504;43.334;21.918;2023-05-23T05:45:21;10.0;;;10.0;;
22673;SDS011;11504;43.334;21.918;2023-05-23T05:49:57;10.0;;;10.0;;
22673;SDS011;11504;43.334;21.918;2023-05-23T05:54:34;10.0;;;10.0;;
22673;SDS011;11504;43.334;21.918;2023-05-23T05:59:10;10.0;;;10.0;;
22673;SDS011;11504;43.334;21.918;2023-05-23T06:03:46;10.0;;;10.0;;
22673;SDS011;11504;43.334;21.918;2023-05-23T06:08:22;10.0;;;10.0;;
22673;SDS011;11504;43.334;21.918;2023-05-23T06:12:59;10.0;;;10.0;;
22673;SDS011;11504;43.334;21.918;2023-05-23T06:17:35;10.0;;;10.0;;
22673;SDS011;11504;43.334;21.918;2023-05-23T06:22:11;10.0;;;10.0;;
22673;SDS011;11504;43.334;21.918;2023-05-23T06:26:47;10.0;;;10.0;;
22673;SDS011;11504;43.334;21.918;2023-05-23T06:40:36;9.0;;;9.0;;
22673;SDS011;11504;43.334;21.918;2023-05-23T06:45:12;9.0;;;9.0;;
22673;SDS011;11504;43.334;21.918;2023-05-23T06:49:48;9.0;;;9.0;;
22673;SDS011;11504;43.334;21.918;2023-05-23T06:54:24;9.0;;;9.0;;
22673;SDS011;11504;43.334;21.918;2023-05-23T06:59:00;10.0;;;10.0;;
22673;SDS011;11504;43.334;21.918;2023-05-23T07:03:36;10.0;;;10.0;;
22673;SDS011;11504;43.334;21.918;2023-05-23T07:08:12;10.0;;;10.0;;
22673;SDS011;11504;43.334;21.918;2023-05-23T07:12:49;11.0;;;11.0;;
22673;SDS011;11504;43.334;21.918;2023-05-23T07:17:25;11.0;;;11.0;;
22673;SDS011;11504;43.334;21.918;2023-05-23T07:22:01;10.0;;;10.0;;
22673;SDS011;11504;43.334;21.918;2023-05-23T07:26:37;10.0;;;10.0;;
22673;SDS011;11504;43.334;21.918;2023-05-23T07:31:13;10.0;;;9.0;;
22673;SDS011;11504;43.334;21.918;2023-05-23T07:35:50;10.0;;;9.0;;
22673;SDS011;11504;43.334;21.918;2023-05-23T07:40:26;10.0;;;10.0;;
22673;SDS011;11504;43.334;21.918;2023-05-23T07:45:05;10.0;;;10.0;;
22673;SDS011;11504;43.334;21.918;2023-05-23T07:49:43;10.0;;;10.0;;
22673;SDS011;11504;43.334;21.918;2023-05-23T07:54:20;10.0;;;10.0;;
22673;SDS011;11504;43.334;21.918;2023-05-23T07:58:56;11.0;;;10.0;;
22673;SDS011;11504;43.334;21.918;2023-05-23T08:03:33;11.0;;;10.0;;
22673;SDS011;11504;43.334;21.918;2023-05-23T08:08:09;11.0;;;10.0;;
22673;SDS011;11504;43.334;21.918;2023-05-23T08:12:46;12.0;;;11.0;;
22673;SDS011;11504;43.334;21.918;2023-05-23T08:17:22;12.0;;;11.0;;
22673;SDS011;11504;43.334;21.918;2023-05-23T08:21:59;12.0;;;12.0;;
22673;SDS011;11504;43.334;21.918;2023-05-23T08:26:35;12.0;;;12.0;;
22673;SDS011;11504;43.334;21.918;2023-05-23T08:31:11;12.0;;;12.0;;
22673;SDS011;11504;43.334;21.918;2023-05-23T08:35:47;12.0;;;12.0;;
22673;SDS011;11504;43.334;21.918;2023-05-23T08:40:26;13.0;;;12.0;;
22673;SDS011;11504;43.334;21.918;2023-05-23T08:45:09;13.0;;;12.0;;
22673;SDS011;11504;43.334;21.918;2023-05-23T08:49:49;14.0;;;13.0;;
22673;SDS011;11504;43.334;21.918;2023-05-23T08:54:31;14.0;;;13.0;;
22673;SDS011;11504;43.334;21.918;2023-05-23T08:59:10;14.0;;;12.0;;
22673;SDS011;11504;43.334;21.918;2023-05-23T09:03:50;14.0;;;12.0;;
22673;SDS011;11504;43.334;21.918;2023-05-23T09:08:27;13.0;;;12.0;;
22673;SDS011;11504;43.334;21.918;2023-05-23T09:13:03;13.0;;;12.0;;
22673;SDS011;11504;43.334;21.918;2023-05-23T09:17:40;13.0;;;12.0;;
22673;SDS011;11504;43.334;21.918;2023-05-23T09:22:24;12.0;;;12.0;;
22673;SDS011;11504;43.334;21.918;2023-05-23T09:27:04;12.0;;;12.0;;
22673;SDS011;11504;43.334;21.918;2023-05-23T09:31:41;12.0;;;11.0;;
22673;SDS011;11504;43.334;21.918;2023-05-23T09:36:18;12.0;;;11.0;;
22673;SDS011;11504;43.334;21.918;2023-05-23T09:40:55;12.0;;;12.0;;
22673;SDS011;11504;43.334;21.918;2023-05-23T09:45:34;12.0;;;12.0;;
22673;SDS011;11504;43.334;21.918;2023-05-23T09:50:12;13.0;;;12.0;;
22673;SDS011;11504;43.334;21.918;2023-05-23T09:54:48;13.0;;;12.0;;
22673;SDS011;11504;43.334;21.918;2023-05-23T09:59:30;12.0;;;12.0;;
22673;SDS011;11504;43.334;21.918;2023-05-23T10:04:21;12.0;;;12.0;;
22673;SDS011;11504;43.334;21.918;2023-05-23T10:09:04;11.0;;;11.0;;
22673;SDS011;11504;43.334;21.918;2023-05-23T10:13:48;11.0;;;11.0;;
22673;SDS011;11504;43.334;21.918;2023-05-23T10:18:38;11.0;;;11.0;;
22673;SDS011;11504;43.334;21.918;2023-05-23T10:23:20;11.0;;;11.0;;
22673;SDS011;11504;43.334;21.918;2023-05-23T10:27:58;11.0;;;11.0;;
22673;SDS011;11504;43.334;21.918;2023-05-23T10:32:41;11.0;;;11.0;;
22673;SDS011;11504;43.334;21.918;2023-05-23T10:37:30;11.0;;;11.0;;
22673;SDS011;11504;43.334;21.918;2023-05-23T10:42:51;12.0;;;11.0;;
22673;SDS011;11504;43.334;21.918;2023-05-23T10:47:53;12.0;;;11.0;;
22673;SDS011;11504;43.334;21.918;2023-05-23T10:52:39;12.0;;;11.0;;
22673;SDS011;11504;43.334;21.918;2023-05-23T10:57:24;12.0;;;11.0;;
22673;SDS011;11504;43.334;21.918;2023-05-23T11:02:11;12.0;;;10.0;;
22673;SDS011;11504;43.334;21.918;2023-05-23T11:06:55;12.0;;;10.0;;
22673;SDS011;11504;43.334;21.918;2023-05-23T11:12:06;12.0;;;10.0;;
22673;SDS011;11504;43.334;21.918;2023-05-23T11:16:44;12.0;;;10.0;;
22673;SDS011;11504;43.334;21.918;2023-05-23T11:21:22;12.0;;;10.0;;
22673;SDS011;11504;43.334;21.918;2023-05-23T11:26:00;12.0;;;10.0;;
22673;SDS011;11504;43.334;21.918;2023-05-23T11:30:38;11.0;;;10.0;;
22673;SDS011;11504;43.334;21.918;2023-05-23T11:35:16;11.0;;;10.0;;
22673;SDS011;11504;43.334;21.918;2023-05-23T11:39:53;11.0;;;10.0;;
22673;SDS011;11504;43.334;21.918;2023-05-23T11:44:30;11.0;;;10.0;;
22673;SDS011;11504;43.334;21.918;2023-05-23T12:03:08;10.0;;;9.0;;
22673;SDS011;11504;43.334;21.918;2023-05-23T12:07:48;10.0;;;9.0;;
22673;SDS011;11504;43.334;21.918;2023-05-23T12:12:25;10.0;;;9.0;;
22673;SDS011;11504;43.334;21.918;2023-05-23T12:17:01;10.0;;;9.0;;
22673;SDS011;11504;43.334;21.918;2023-05-23T12:21:46;10.0;;;9.0;;
22673;SDS011;11504;43.334;21.918;2023-05-23T12:26:23;10.0;;;9.0;;
22673;SDS011;11504;43.334;21.918;2023-05-23T12:31:11;9.0;;;9.0;;
22673;SDS011;11504;43.334;21.918;2023-05-23T12:35:48;9.0;;;9.0;;
22673;SDS011;11504;43.334;21.918;2023-05-23T12:40:25;10.0;;;9.0;;
22673;SDS011;11504;43.334;21.918;2023-05-23T12:45:01;10.0;;;9.0;;
22673;SDS011;11504;43.334;21.918;2023-05-23T12:49:38;10.0;;;9.0;;
22673;SDS011;11504;43.334;21.918;2023-05-23T12:54:14;10.0;;;9.0;;
22673;SDS011;11504;43.334;21.918;2023-05-23T12:58:51;10.0;;;9.0;;
22673;SDS011;11504;43.334;21.918;2023-05-23T13:03:28;10.0;;;9.0;;
22673;SDS011;11504;43.334;21.918;2023-05-23T13:08:04;10.0;;;9.0;;
22673;SDS011;11504;43.334;21.918;2023-05-23T13:12:41;10.0;;;9.0;;
22673;SDS011;11504;43.334;21.918;2023-05-23T13:17:18;10.0;;;9.0;;
22673;SDS011;11504;43.334;21.918;2023-05-23T13:21:55;10.0;;;9.0;;
22673;SDS011;11504;43.334;21.918;2023-05-23T13:26:33;10.0;;;9.0;;
22673;SDS011;11504;43.334;21.918;2023-05-23T13:31:10;9.0;;;9.0;;
22673;SDS011;11504;43.334;21.918;2023-05-23T13:35:48;9.0;;;9.0;;
22673;SDS011;11504;43.334;21.918;2023-05-23T13:40:26;10.0;;;9.0;;
22673;SDS011;11504;43.334;21.918;2023-05-23T13:45:05;10.0;;;9.0;;
22673;SDS011;11504;43.334;21.918;2023-05-23T13:49:44;11.0;;;9.0;;
22673;SDS011;11504;43.334;21.918;2023-05-23T13:54:20;11.0;;;9.0;;
22673;SDS011;11504;43.334;21.918;2023-05-23T13:58:57;10.0;;;8.0;;
22673;SDS011;11504;43.334;21.918;2023-05-23T14:03:34;10.0;;;8.0;;
22673;SDS011;11504;43.334;21.918;2023-05-23T14:08:10;10.0;;;8.0;;
22673;SDS011;11504;43.334;21.918;2023-05-23T14:12:47;8.0;;;7.0;;
22673;SDS011;11504;43.334;21.918;2023-05-23T14:17:23;8.0;;;7.0;;
22673;SDS011;11504;43.334;21.918;2023-05-23T14:21:59;8.0;;;8.0;;
22673;SDS011;11504;43.334;21.918;2023-05-23T14:26:35;8.0;;;8.0;;
22673;SDS011;11504;43.334;21.918;2023-05-23T14:31:12;9.0;;;9.0;;
22673;SDS011;11504;43.334;21.918;2023-05-23T14:35:49;9.0;;;9.0;;
22673;SDS011;11504;43.334;21.918;2023-05-23T14:40:26;9.0;;;8.0;;
22673;SDS011;11504;43.334;21.918;2023-05-23T14:45:05;9.0;;;8.0;;
22673;SDS011;11504;43.334;21.918;2023-05-23T14:49:42;9.0;;;8.0;;
22673;SDS011;11504;43.334;21.918;2023-05-23T14:54:19;9.0;;;8.0;;
22673;SDS011;11504;43.334;21.918;2023-05-23T14:58:55;9.0;;;8.0;;
22673;SDS011;11504;43.334;21.918;2023-05-23T15:03:32;9.0;;;8.0;;
22673;SDS011;11504;43.334;21.918;2023-05-23T15:08:09;9.0;;;8.0;;
22673;SDS011;11504;43.334;21.918;2023-05-23T15:12:45;9.0;;;8.0;;
22673;SDS011;11504;43.334;21.918;2023-05-23T15:17:22;9.0;;;8.0;;
22673;SDS011;11504;43.334;21.918;2023-05-23T15:21:58;10.0;;;8.0;;
22673;SDS011;11504;43.334;21.918;2023-05-23T15:26:35;10.0;;;8.0;;
22673;SDS011;11504;43.334;21.918;2023-05-23T15:31:12;10.0;;;9.0;;
22673;SDS011;11504;43.334;21.918;2023-05-23T15:35:49;10.0;;;9.0;;
22673;SDS011;11504;43.334;21.918;2023-05-23T15:40:26;10.0;;;8.0;;
22673;SDS011;11504;43.334;21.918;2023-05-23T15:45:05;10.0;;;8.0;;
22673;SDS011;11504;43.334;21.918;2023-05-23T15:49:45;9.0;;;7.0;;
22673;SDS011;11504;43.334;21.918;2023-05-23T15:54:22;9.0;;;7.0;;
22673;SDS011;11504;43.334;21.918;2023-05-23T15:58:59;9.0;;;8.0;;
22673;SDS011;11504;43.334;21.918;2023-05-23T16:03:36;9.0;;;8.0;;
22673;SDS011;11504;43.334;21.918;2023-05-23T16:08:13;9.0;;;8.0;;
22673;SDS011;11504;43.334;21.918;2023-05-23T16:12:51;9.0;;;8.0;;
22673;SDS011;11504;43.334;21.918;2023-05-23T16:17:27;9.0;;;8.0;;
22673;SDS011;11504;43.334;21.918;2023-05-23T16:22:04;10.0;;;9.0;;
22673;SDS011;11504;43.334;21.918;2023-05-23T16:26:41;10.0;;;9.0;;
22673;SDS011;11504;43.334;21.918;2023-05-23T16:31:24;11.0;;;10.0;;
22673;SDS011;11504;43.334;21.918;2023-05-23T16:36:04;11.0;;;10.0;;
22673;SDS011;11504;43.334;21.918;2023-05-23T16:40:43;10.0;;;10.0;;
22673;SDS011;11504;43.334;21.918;2023-05-23T16:45:20;10.0;;;10.0;;
22673;SDS011;11504;43.334;21.918;2023-05-23T16:49:57;9.0;;;9.0;;
22673;SDS011;11504;43.334;21.918;2023-05-23T16:54:33;9.0;;;9.0;;
22673;SDS011;11504;43.334;21.918;2023-05-23T16:59:09;10.0;;;10.0;;
22673;SDS011;11504;43.334;21.918;2023-05-23T17:03:46;10.0;;;10.0;;
22673;SDS011;11504;43.334;21.918;2023-05-23T17:08:22;10.0;;;10.0;;
22673;SDS011;11504;43.334;21.918;2023-05-23T17:12:58;10.0;;;10.0;;
22673;SDS011;11504;43.334;21.918;2023-05-23T17:17:35;10.0;;;10.0;;
22673;SDS011;11504;43.334;21.918;2023-05-23T17:22:11;9.0;;;9.0;;
22673;SDS011;11504;43.334;21.918;2023-05-23T17:26:47;9.0;;;9.0;;
22673;SDS011;11504;43.334;21.918;2023-05-23T17:31:24;8.0;;;8.0;;
22673;SDS011;11504;43.334;21.918;2023-05-23T17:36:01;8.0;;;8.0;;
22673;SDS011;11504;43.334;21.918;2023-05-23T17:40:38;9.0;;;8.0;;
22673;SDS011;11504;43.334;21.918;2023-05-23T17:45:15;9.0;;;8.0;;
22673;SDS011;11504;43.334;21.918;2023-05-23T17:49:52;10.0;;;9.0;;
22673;SDS011;11504;43.334;21.918;2023-05-23T17:54:29;10.0;;;9.0;;
22673;SDS011;11504;43.334;21.918;2023-05-23T17:59:05;10.0;;;10.0;;
22673;SDS011;11504;43.334;21.918;2023-05-23T18:03:42;10.0;;;10.0;;
22673;SDS011;11504;43.334;21.918;2023-05-23T18:08:19;10.0;;;10.0;;
22673;SDS011;11504;43.334;21.918;2023-05-23T18:12:55;10.0;;;10.0;;
22673;SDS011;11504;43.334;21.918;2023-05-23T18:17:32;10.0;;;10.0;;
22673;SDS011;11504;43.334;21.918;2023-05-23T18:22:08;10.0;;;10.0;;
22673;SDS011;11504;43.334;21.918;2023-05-23T18:26:45;10.0;;;10.0;;
22673;SDS011;11504;43.334;21.918;2023-05-23T18:31:21;11.0;;;10.0;;
22673;SDS011;11504;43.334;21.918;2023-05-23T18:35:58;11.0;;;10.0;;
22673;SDS011;11504;43.334;21.918;2023-05-23T18:40:35;11.0;;;10.0;;
22673;SDS011;11504;43.334;21.918;2023-05-23T18:45:11;11.0;;;10.0;;
22673;SDS011;11504;43.334;21.918;2023-05-23T18:49:50;11.0;;;10.0;;
22673;SDS011;11504;43.334;21.918;2023-05-23T18:54:27;11.0;;;10.0;;
22673;SDS011;11504;43.334;21.918;2023-05-23T18:59:03;10.0;;;10.0;;
22673;SDS011;11504;43.334;21.918;2023-05-23T19:03:40;10.0;;;10.0;;
22673;SDS011;11504;43.334;21.918;2023-05-23T19:08:16;10.0;;;10.0;;
22673;SDS011;11504;43.334;21.918;2023-05-23T19:12:53;10.0;;;9.0;;
22673;SDS011;11504;43.334;21.918;2023-05-23T19:17:29;10.0;;;9.0;;
22673;SDS011;11504;43.334;21.918;2023-05-23T19:22:06;10.0;;;9.0;;
22673;SDS011;11504;43.334;21.918;2023-05-23T19:26:42;10.0;;;9.0;;
22673;SDS011;11504;43.334;21.918;2023-05-23T19:31:19;10.0;;;9.0;;
22673;SDS011;11504;43.334;21.918;2023-05-23T19:35:55;10.0;;;9.0;;
22673;SDS011;11504;43.334;21.918;2023-05-23T19:40:31;10.0;;;9.0;;
22673;SDS011;11504;43.334;21.918;2023-05-23T19:45:09;10.0;;;9.0;;
22673;SDS011;11504;43.334;21.918;2023-05-23T19:49:46;10.0;;;9.0;;
22673;SDS011;11504;43.334;21.918;2023-05-23T19:54:22;10.0;;;9.0;;
22673;SDS011;11504;43.334;21.918;2023-05-23T19:58:58;10.0;;;9.0;;
22673;SDS011;11504;43.334;21.918;2023-05-23T20:03:35;10.0;;;9.0;;
22673;SDS011;11504;43.334;21.918;2023-05-23T20:08:11;10.0;;;9.0;;
22673;SDS011;11504;43.334;21.918;2023-05-23T20:12:48;9.0;;;9.0;;
22673;SDS011;11504;43.334;21.918;2023-05-23T20:17:25;9.0;;;9.0;;
22673;SDS011;11504;43.334;21.918;2023-05-23T20:22:01;10.0;;;10.0;;
22673;SDS011;11504;43.334;21.918;2023-05-23T20:26:38;10.0;;;10.0;;
22673;SDS011;11504;43.334;21.918;2023-05-23T20:31:16;11.0;;;10.0;;
22673;SDS011;11504;43.334;21.918;2023-05-23T20:35:53;11.0;;;10.0;;
22673;SDS011;11504;43.334;21.918;2023-05-23T20:40:29;11.0;;;10.0;;
22673;SDS011;11504;43.334;21.918;2023-05-23T20:45:08;11.0;;;10.0;;
22673;SDS011;11504;43.334;21.918;2023-05-23T20:49:46;11.0;;;10.0;;
22673;SDS011;11504;43.334;21.918;2023-05-23T20:54:23;11.0;;;10.0;;
22673;SDS011;11504;43.334;21.918;2023-05-23T20:59:00;11.0;;;10.0;;
22673;SDS011;11504;43.334;21.918;2023-05-23T21:03:36;11.0;;;10.0;;
22673;SDS011;11504;43.334;21.918;2023-05-23T21:08:13;11.0;;;10.0;;
22673;SDS011;11504;43.334;21.918;2023-05-23T22:40:20;10.0;;;9.0;;
22673;SDS011;11504;43.334;21.918;2023-05-23T22:44:56;10.0;;;9.0;;
22673;SDS011;11504;43.334;21.918;2023-05-23T22:49:32;10.0;;;9.0;;
22673;SDS011;11504;43.334;21.918;2023-05-23T22:54:09;10.0;;;9.0;;
22673;SDS011;11504;43.334;21.918;2023-05-23T22:58:45;10.0;;;9.0;;
22673;SDS011;11504;43.334;21.918;2023-05-23T23:03:21;10.0;;;9.0;;
22673;SDS011;11504;43.334;21.918;2023-05-23T23:07:58;10.0;;;9.0;;
